createdAt,value
2019-02-16T00:01:48.062Z,5.67
2019-02-16T00:04:18.722Z,5.40
2019-02-16T00:06:49.415Z,5.30
2019-02-16T00:09:20.162Z,5.27
2019-02-16T00:11:50.819Z,6.17
2019-02-16T00:14:21.574Z,5.30
2019-02-16T00:16:52.232Z,5.57
2019-02-16T00:19:22.948Z,5.90
2019-02-16T00:21:53.695Z,5.10
2019-02-16T00:24:24.462Z,5.37
2019-02-16T00:26:55.181Z,4.77
2019-02-16T00:29:25.942Z,5.23
2019-02-16T00:31:56.681Z,5.33
2019-02-16T00:34:27.374Z,4.27
2019-02-16T00:36:58.102Z,5.10
2019-02-16T00:39:28.897Z,5.10
2019-02-16T00:41:59.634Z,5.07
2019-02-16T00:44:30.456Z,4.90
2019-02-16T00:47:01.156Z,5.13
2019-02-16T00:49:31.942Z,4.57
2019-02-16T00:52:02.691Z,5.00
2019-02-16T00:54:33.545Z,4.90
2019-02-16T00:57:04.271Z,5.20
2019-02-16T00:59:36.338Z,5.00
2019-02-16T01:02:07.065Z,4.90
2019-02-16T01:04:39.176Z,4.70
2019-02-16T01:07:10.046Z,4.83
2019-02-16T01:09:40.801Z,4.97
2019-02-16T01:12:11.584Z,5.67
2019-02-16T01:14:42.317Z,6.30
2019-02-16T01:17:34.196Z,5.53
2019-02-16T01:20:05.695Z,5.30
2019-02-16T01:22:36.450Z,5.20
2019-02-16T01:25:07.258Z,5.80
2019-02-16T01:27:38.041Z,5.63
2019-02-16T01:30:10.967Z,5.63
2019-02-16T01:32:41.724Z,6.97
2019-02-16T01:35:12.460Z,7.10
2019-02-16T01:37:43.256Z,6.60
2019-02-16T01:40:13.992Z,6.40
2019-02-16T01:42:44.799Z,7.17
2019-02-16T01:45:15.835Z,7.20
2019-02-16T01:47:46.632Z,6.93
2019-02-16T01:50:17.397Z,6.50
2019-02-16T01:52:48.153Z,6.07
2019-02-16T01:55:18.869Z,6.50
2019-02-16T01:57:49.635Z,6.20
2019-02-16T02:00:20.371Z,6.27
2019-02-16T02:02:51.167Z,5.50
2019-02-16T02:05:21.914Z,6.27
2019-02-16T02:07:52.690Z,6.10
2019-02-16T02:10:23.426Z,5.67
2019-02-16T02:12:54.202Z,6.00
2019-02-16T02:15:24.988Z,5.90
2019-02-16T02:17:55.807Z,6.17
2019-02-16T02:20:26.571Z,5.20
2019-02-16T02:22:57.357Z,5.30
2019-02-16T02:25:28.123Z,5.67
2019-02-16T02:27:58.949Z,5.80
2019-02-16T02:30:29.692Z,5.57
2019-02-16T02:33:00.447Z,5.90
2019-02-16T02:35:31.219Z,5.13
2019-02-16T02:38:02.074Z,5.73
2019-02-16T02:40:32.831Z,5.60
2019-02-16T02:43:03.610Z,5.30
2019-02-16T02:45:34.353Z,5.93
2019-02-16T02:48:05.100Z,5.40
2019-02-16T02:50:35.975Z,6.10
2019-02-16T02:53:06.665Z,5.90
2019-02-16T02:55:37.436Z,5.97
2019-02-16T02:58:08.223Z,5.53
2019-02-16T03:00:38.979Z,6.03
2019-02-16T03:03:09.787Z,5.80
2019-02-16T03:05:40.582Z,5.77
2019-02-16T03:08:11.328Z,5.10
2019-02-16T03:10:42.095Z,6.37
2019-02-16T03:13:12.819Z,5.47
2019-02-16T03:15:43.631Z,5.50
2019-02-16T03:18:14.374Z,5.80
2019-02-16T03:20:45.159Z,5.17
2019-02-16T03:23:22.720Z,4.83
2019-02-16T03:26:35.793Z,5.17
2019-02-16T03:29:16.006Z,5.93
2019-02-16T03:32:22.434Z,5.90
2019-02-16T03:35:34.363Z,5.07
2019-02-16T03:38:48.200Z,5.87
2019-02-16T03:41:18.985Z,5.93
2019-02-16T03:43:49.755Z,5.17
2019-02-16T03:46:20.517Z,5.80
2019-02-16T03:48:51.344Z,5.80
2019-02-16T03:51:22.070Z,5.60
2019-02-16T03:53:52.866Z,5.50
2019-02-16T03:56:42.718Z,5.53
2019-02-16T03:59:13.463Z,6.07
2019-02-16T04:01:44.234Z,5.17
2019-02-16T04:04:14.975Z,5.60
2019-02-16T04:06:45.797Z,5.90
2019-02-16T04:09:16.471Z,5.63
2019-02-16T04:11:47.224Z,5.30
2019-02-16T04:14:18.001Z,5.90
2019-02-16T04:16:48.728Z,5.87
2019-02-16T04:19:19.532Z,6.17
2019-02-16T04:21:50.310Z,6.83
2019-02-16T04:24:21.087Z,6.30
2019-02-16T04:26:51.843Z,6.47
2019-02-16T04:29:22.652Z,6.17
2019-02-16T04:31:53.394Z,5.90
2019-02-16T04:34:24.182Z,6.80
2019-02-16T04:36:54.948Z,6.33
2019-02-16T04:39:25.764Z,7.27
2019-02-16T04:41:56.529Z,5.77
2019-02-16T04:44:27.286Z,6.30
2019-02-16T04:46:58.046Z,6.80
2019-02-16T04:49:28.818Z,6.40
2019-02-16T04:51:59.685Z,6.40
2019-02-16T04:54:30.495Z,6.53
2019-02-16T04:57:01.259Z,14.43
2019-02-16T04:59:32.071Z,8.97
2019-02-16T05:02:02.839Z,8.33
2019-02-16T05:04:33.625Z,8.80
2019-02-16T05:07:04.393Z,8.27
2019-02-16T05:09:35.205Z,7.77
2019-02-16T05:12:05.935Z,8.67
2019-02-16T05:14:36.730Z,7.10
2019-02-16T05:17:07.458Z,9.10
2019-02-16T05:19:38.263Z,8.20
2019-02-16T05:22:09.038Z,9.07
2019-02-16T05:24:39.826Z,9.80
2019-02-16T05:27:10.553Z,11.07
2019-02-16T05:29:41.298Z,10.00
2019-02-16T05:32:12.134Z,10.63
2019-02-16T05:34:42.900Z,9.67
2019-02-16T05:37:13.747Z,8.40
2019-02-16T05:39:44.556Z,7.50
2019-02-16T05:42:15.329Z,7.70
2019-02-16T05:44:46.085Z,11.03
2019-02-16T05:47:18.072Z,12.10
2019-02-16T05:50:07.923Z,13.23
2019-02-16T05:52:38.709Z,8.93
2019-02-16T05:55:09.535Z,8.70
2019-02-16T05:57:40.241Z,8.33
2019-02-16T06:00:12.658Z,7.13
2019-02-16T06:02:43.444Z,7.20
2019-02-16T06:05:14.210Z,8.00
2019-02-16T06:07:45.026Z,7.27
2019-02-16T06:10:15.806Z,7.17
2019-02-16T06:12:46.579Z,6.20
2019-02-16T06:15:17.346Z,7.10
2019-02-16T06:17:48.132Z,6.50
2019-02-16T06:20:18.856Z,6.67
2019-02-16T06:22:49.694Z,6.50
2019-02-16T06:25:20.431Z,6.03
2019-02-16T06:27:51.206Z,6.50
2019-02-16T06:30:41.027Z,7.10
2019-02-16T06:33:11.865Z,6.30
2019-02-16T06:35:49.171Z,7.20
2019-02-16T06:38:20.038Z,7.07
2019-02-16T06:40:50.764Z,7.33
2019-02-16T06:43:21.600Z,7.43
2019-02-16T06:45:52.330Z,7.10
2019-02-16T06:48:23.123Z,7.63
2019-02-16T06:50:53.859Z,7.90
2019-02-16T06:53:24.615Z,7.10
2019-02-16T06:56:23.602Z,6.97
2019-02-16T06:58:54.397Z,7.43
2019-02-16T07:01:25.130Z,7.13
2019-02-16T07:03:55.886Z,6.67
2019-02-16T07:06:26.663Z,6.83
2019-02-16T07:08:57.479Z,6.30
2019-02-16T07:11:28.235Z,6.80
2019-02-16T07:13:59.016Z,7.73
2019-02-16T07:16:48.702Z,7.63
2019-02-16T07:19:25.330Z,7.00
2019-02-16T07:21:56.057Z,7.83
2019-02-16T07:24:26.822Z,7.10
2019-02-16T07:26:57.530Z,8.27
2019-02-16T07:29:28.335Z,8.50
2019-02-16T07:31:59.081Z,8.70
2019-02-16T07:34:29.887Z,8.20
2019-02-16T07:37:00.625Z,7.60
2019-02-16T07:39:31.462Z,7.57
2019-02-16T07:42:02.378Z,6.77
2019-02-16T07:44:45.366Z,6.90
2019-02-16T07:47:25.545Z,6.80
2019-02-16T07:50:17.456Z,7.10
2019-02-16T07:53:13.148Z,7.53
2019-02-16T07:55:48.965Z,7.20
2019-02-16T07:58:36.447Z,7.73
2019-02-16T08:01:15.913Z,9.37
2019-02-16T08:04:05.606Z,11.47
2019-02-16T08:06:59.073Z,14.40
2019-02-16T08:09:54.637Z,20.00
2019-02-16T08:12:43.090Z,11.30
2019-02-16T08:15:26.858Z,9.83
2019-02-16T08:18:22.902Z,9.60
2019-02-16T08:21:15.881Z,9.00
2019-02-16T08:24:01.632Z,9.00
2019-02-16T08:26:50.001Z,8.57
2019-02-16T08:29:38.484Z,8.30
2019-02-16T08:32:30.617Z,8.57
2019-02-16T08:35:09.100Z,8.57
2019-02-16T08:38:01.592Z,8.80
2019-02-16T08:40:47.342Z,15.47
2019-02-16T08:43:49.080Z,12.93
2019-02-16T08:46:38.826Z,8.93
2019-02-16T08:49:31.585Z,8.23
2019-02-16T08:52:36.382Z,8.80
2019-02-16T08:55:25.523Z,8.17
2019-02-16T08:58:08.051Z,7.73
2019-02-16T09:01:09.835Z,8.10
2019-02-16T09:03:55.545Z,7.90
2019-02-16T09:06:43.422Z,7.87
2019-02-16T09:09:41.959Z,7.97
2019-02-16T09:12:37.460Z,7.97
2019-02-16T09:15:27.450Z,8.03
2019-02-16T09:18:16.202Z,7.93
2019-02-16T09:21:14.189Z,7.17
2019-02-16T09:23:59.191Z,7.83
2019-02-16T09:27:04.429Z,8.37
2019-02-16T09:29:55.861Z,9.00
2019-02-16T09:32:51.421Z,9.10
2019-02-16T09:35:54.087Z,8.97
2019-02-16T09:38:36.145Z,9.13
2019-02-16T09:41:32.136Z,9.70
2019-02-16T09:44:11.324Z,9.18
2019-02-16T09:46:59.905Z,8.75
2019-02-16T09:49:44.937Z,10.07
2019-02-16T09:52:38.212Z,8.87
2019-02-16T09:55:27.566Z,8.75
2019-02-16T09:58:16.176Z,8.53
2019-02-16T10:01:05.937Z,8.78
2019-02-16T10:03:57.848Z,8.55
2019-02-16T10:07:02.724Z,8.30
2019-02-16T10:09:51.356Z,9.23
2019-02-16T10:12:41.084Z,8.98
2019-02-16T10:15:28.025Z,9.00
2019-02-16T10:18:17.725Z,9.40
2019-02-16T10:21:09.966Z,8.67
2019-02-16T10:23:59.687Z,8.93
2019-02-16T10:26:58.279Z,10.87
2019-02-16T10:29:43.830Z,9.37
2019-02-16T10:32:33.530Z,8.83
2019-02-16T10:35:26.721Z,8.80
2019-02-16T10:38:11.581Z,8.47
2019-02-16T10:41:04.477Z,8.57
2019-02-16T10:43:52.286Z,8.00
2019-02-16T10:46:43.322Z,9.47
2019-02-16T10:49:35.745Z,9.83
2019-02-16T10:52:26.887Z,12.00
2019-02-16T10:55:26.782Z,8.67
2019-02-16T10:58:16.544Z,7.77
2019-02-16T11:01:21.474Z,7.00
2019-02-16T11:04:11.195Z,8.30
2019-02-16T11:06:59.565Z,7.43
2019-02-16T11:09:55.307Z,7.70
2019-02-16T11:12:47.878Z,7.33
2019-02-16T11:15:26.578Z,7.23
2019-02-16T11:18:19.217Z,6.40
2019-02-16T11:21:15.456Z,6.47
2019-02-16T11:24:00.540Z,7.23
2019-02-16T11:26:49.850Z,7.37
2019-02-16T11:29:45.853Z,7.57
2019-02-16T11:32:41.945Z,6.37
2019-02-16T11:35:40.638Z,6.10
2019-02-16T11:38:30.271Z,5.93
2019-02-16T11:41:18.787Z,6.17
2019-02-16T11:43:57.030Z,6.20
2019-02-16T11:46:45.357Z,6.33
2019-02-16T11:49:35.099Z,6.13
2019-02-16T11:52:17.051Z,7.60
2019-02-16T11:55:15.880Z,6.10
2019-02-16T11:58:04.611Z,6.40
2019-02-16T12:00:52.931Z,6.23
2019-02-16T12:03:51.863Z,6.37
2019-02-16T12:06:45.566Z,6.63
2019-02-16T12:09:33.985Z,6.60
2019-02-16T12:12:24.156Z,6.77
2019-02-16T12:15:13.879Z,6.67
2019-02-16T12:18:02.447Z,7.80
2019-02-16T12:20:50.907Z,6.23
2019-02-16T12:23:43.530Z,6.53
2019-02-16T12:26:23.307Z,7.10
2019-02-16T12:29:11.628Z,7.10
2019-02-16T12:32:13.392Z,7.23
2019-02-16T12:35:09.254Z,7.53
2019-02-16T12:37:55.774Z,7.07
2019-02-16T12:40:35.083Z,6.67
2019-02-16T12:43:16.930Z,6.83
2019-02-16T12:45:57.939Z,7.20
2019-02-16T12:48:34.167Z,8.13
2019-02-16T12:51:27.819Z,8.30
2019-02-16T12:54:16.070Z,8.53
2019-02-16T12:56:51.789Z,8.33
2019-02-16T12:59:44.557Z,8.60
2019-02-16T13:02:32.918Z,8.70
2019-02-16T13:05:34.912Z,9.47
2019-02-16T13:08:10.602Z,8.80
2019-02-16T13:10:54.577Z,8.05
2019-02-16T13:13:33.318Z,7.67
2019-02-16T13:16:23.007Z,8.83
2019-02-16T13:19:12.739Z,8.23
2019-02-16T13:22:02.489Z,8.50
2019-02-16T13:24:45.147Z,8.78
2019-02-16T13:27:36.429Z,9.15
2019-02-16T13:30:35.545Z,9.13
2019-02-16T13:33:43.858Z,8.55
2019-02-16T13:36:32.936Z,8.90
2019-02-16T13:39:26.401Z,8.58
2019-02-16T13:42:05.187Z,9.05
2019-02-16T13:44:53.807Z,8.53
2019-02-16T13:47:35.895Z,8.15
2019-02-16T13:50:28.417Z,8.08
2019-02-16T13:53:17.269Z,8.10
2019-02-16T13:56:06.418Z,8.85
2019-02-16T13:58:53.052Z,8.13
2019-02-16T14:01:40.615Z,7.90
2019-02-16T14:04:32.701Z,9.23
2019-02-16T14:07:19.379Z,9.28
2019-02-16T14:10:07.990Z,8.70
2019-02-16T14:12:49.091Z,8.23
2019-02-16T14:15:41.973Z,9.17
2019-02-16T14:18:14.316Z,8.90
2019-02-16T14:20:46.623Z,9.03
2019-02-16T14:23:17.451Z,9.33
2019-02-16T14:25:48.846Z,8.77
2019-02-16T14:28:19.622Z,8.73
2019-02-16T14:30:50.438Z,8.53
2019-02-16T14:33:21.267Z,8.97
2019-02-16T14:35:52.090Z,8.77
2019-02-16T14:38:44.650Z,9.20
2019-02-16T14:41:15.458Z,9.13
2019-02-16T14:43:46.234Z,8.20
2019-02-16T14:46:17.009Z,8.53
2019-02-16T14:48:49.855Z,8.83
2019-02-16T14:51:20.242Z,8.60
2019-02-16T14:53:51.009Z,9.10
2019-02-16T14:56:21.796Z,8.67
2019-02-16T14:58:52.561Z,8.80
2019-02-16T15:01:23.287Z,8.23
2019-02-16T15:03:54.104Z,8.70
2019-02-16T15:06:24.854Z,8.20
2019-02-16T15:08:55.631Z,8.77
2019-02-16T15:11:26.387Z,8.10
2019-02-16T15:13:57.188Z,10.60
2019-02-16T15:16:27.934Z,8.43
2019-02-16T15:18:58.740Z,8.23
2019-02-16T15:21:29.506Z,7.67
2019-02-16T15:24:00.335Z,8.40
2019-02-16T15:26:31.132Z,7.80
2019-02-16T15:29:01.954Z,8.37
2019-02-16T15:31:32.732Z,8.23
2019-02-16T15:34:03.449Z,8.07
2019-02-16T15:36:34.223Z,7.50
2019-02-16T15:39:07.099Z,8.03
2019-02-16T15:41:38.709Z,8.67
2019-02-16T15:44:10.786Z,8.03
2019-02-16T15:46:41.978Z,8.13
2019-02-16T15:49:12.776Z,8.67
2019-02-16T15:51:43.582Z,8.20
2019-02-16T15:54:14.368Z,8.07
2019-02-16T15:56:45.134Z,8.10
2019-02-16T15:59:16.009Z,9.83
2019-02-16T16:01:48.584Z,9.47
2019-02-16T16:04:19.200Z,9.57
2019-02-16T16:06:49.979Z,12.77
2019-02-16T16:09:49.772Z,13.50
2019-02-16T16:12:42.503Z,10.40
2019-02-16T16:15:32.278Z,8.80
2019-02-16T16:18:23.597Z,8.30
2019-02-16T16:21:13.766Z,8.57
2019-02-16T16:24:12.328Z,8.13
2019-02-16T16:26:51.657Z,8.37
2019-02-16T16:29:56.536Z,7.83
2019-02-16T16:32:46.274Z,7.97
2019-02-16T16:35:25.903Z,7.60
2019-02-16T16:38:19.252Z,8.37
2019-02-16T16:41:21.395Z,8.93
2019-02-16T16:44:20.080Z,7.90
2019-02-16T16:47:18.832Z,7.00
2019-02-16T16:50:06.492Z,7.20
2019-02-16T16:52:55.214Z,6.87
2019-02-16T16:55:31.744Z,8.60
2019-02-16T16:58:11.948Z,8.63
2019-02-16T17:00:54.505Z,8.17
2019-02-16T17:03:56.511Z,8.57
2019-02-16T17:06:45.025Z,10.73
2019-02-16T17:09:41.755Z,9.07
2019-02-16T17:12:49.828Z,10.27
2019-02-16T17:15:34.330Z,9.63
2019-02-16T17:18:24.158Z,9.87
2019-02-16T17:21:13.961Z,8.93
2019-02-16T17:24:19.116Z,9.90
2019-02-16T17:27:18.307Z,10.60
2019-02-16T17:30:02.767Z,9.03
2019-02-16T17:32:55.520Z,10.20
2019-02-16T17:35:51.081Z,9.50
2019-02-16T17:38:53.136Z,9.77
2019-02-16T17:41:41.885Z,11.07
2019-02-16T17:44:24.134Z,9.50
2019-02-16T17:47:13.995Z,10.43
2019-02-16T17:50:05.224Z,10.83
2019-02-16T17:53:03.827Z,10.67
2019-02-16T17:55:52.473Z,10.40
2019-02-16T17:58:45.230Z,11.13
2019-02-16T18:01:31.342Z,10.63
2019-02-16T18:04:27.102Z,11.00
2019-02-16T18:07:29.096Z,11.60
2019-02-16T18:10:21.817Z,11.03
2019-02-16T18:13:20.443Z,10.57
2019-02-16T18:15:59.083Z,10.87
2019-02-16T18:18:37.214Z,10.67
2019-02-16T18:21:26.938Z,11.20
2019-02-16T18:24:15.598Z,9.93
2019-02-16T18:27:02.338Z,10.13
2019-02-16T18:29:50.688Z,10.73
2019-02-16T18:32:58.670Z,10.97
2019-02-16T18:35:47.301Z,10.90
2019-02-16T18:38:37.676Z,11.20
2019-02-16T18:41:30.386Z,11.13
2019-02-16T18:44:22.899Z,11.33
2019-02-16T18:47:04.679Z,11.77
2019-02-16T18:50:03.260Z,11.67
2019-02-16T18:52:51.891Z,11.70
2019-02-16T18:55:40.231Z,12.77
2019-02-16T18:58:29.941Z,13.60
2019-02-16T19:01:37.316Z,13.50
2019-02-16T19:04:43.921Z,14.50
2019-02-16T19:07:51.663Z,14.27
2019-02-16T19:10:45.989Z,14.70
2019-02-16T19:13:40.074Z,14.30
2019-02-16T19:16:49.806Z,14.30
2019-02-16T19:19:46.218Z,13.70
2019-02-16T19:23:19.450Z,14.10
2019-02-16T19:26:16.543Z,13.93
2019-02-16T19:28:58.374Z,14.63
2019-02-16T19:32:04.812Z,14.57
2019-02-16T19:34:55.118Z,14.90
2019-02-16T19:37:46.419Z,29.60
2019-02-16T19:40:50.163Z,37.63
2019-02-16T19:43:44.296Z,23.00
2019-02-16T19:46:41.629Z,15.57
2019-02-16T19:49:39.442Z,13.00
2019-02-16T19:52:33.773Z,12.40
2019-02-16T19:55:40.076Z,16.90
2019-02-16T19:58:19.236Z,14.90
2019-02-16T20:00:59.243Z,14.80
2019-02-16T20:03:37.943Z,13.50
2019-02-16T20:06:32.733Z,14.47
2019-02-16T20:09:28.238Z,17.40
2019-02-16T20:12:25.578Z,18.47
2019-02-16T20:15:22.703Z,15.33
2019-02-16T20:18:17.002Z,13.57
2019-02-16T20:21:19.657Z,12.87
2019-02-16T20:23:59.106Z,13.77
2019-02-16T20:26:40.854Z,13.20
2019-02-16T20:29:21.763Z,12.83
2019-02-16T20:32:13.054Z,13.47
2019-02-16T20:34:55.573Z,13.73
2019-02-16T20:37:46.874Z,13.10
2019-02-16T20:40:30.928Z,12.83
2019-02-16T20:43:22.105Z,13.07
2019-02-16T20:46:31.618Z,13.07
2019-02-16T20:49:29.349Z,13.23
2019-02-16T20:52:39.060Z,13.13
2019-02-16T20:55:23.489Z,14.37
2019-02-16T20:58:13.871Z,12.13
2019-02-16T21:00:57.618Z,12.60
2019-02-16T21:03:48.994Z,12.93
2019-02-16T21:06:29.708Z,12.90
2019-02-16T21:09:19.953Z,13.80
2019-02-16T21:12:10.480Z,12.90
2019-02-16T21:14:51.459Z,13.00
2019-02-16T21:17:41.860Z,13.23
2019-02-16T21:20:37.611Z,14.13
2019-02-16T21:23:27.785Z,13.67
2019-02-16T21:26:25.326Z,14.20
2019-02-16T21:29:19.657Z,14.33
2019-02-16T21:32:04.550Z,14.97
2019-02-16T21:34:58.989Z,15.60
2019-02-16T21:37:42.293Z,14.57
2019-02-16T21:40:36.691Z,13.87
2019-02-16T21:43:31.203Z,14.80
2019-02-16T21:46:25.665Z,15.60
2019-02-16T21:49:15.979Z,15.20
2019-02-16T21:52:10.368Z,14.60
2019-02-16T21:55:00.647Z,17.10
2019-02-16T21:58:07.843Z,16.67
2019-02-16T22:00:53.162Z,15.57
2019-02-16T22:03:43.425Z,15.43
2019-02-16T22:06:47.137Z,19.50
2019-02-16T22:09:37.308Z,14.73
2019-02-16T22:12:15.926Z,15.27
2019-02-16T22:14:48.232Z,15.57
2019-02-16T22:17:20.610Z,14.87
2019-02-16T22:20:04.968Z,14.37
2019-02-16T22:22:37.385Z,14.70
2019-02-16T22:25:09.799Z,13.87
2019-02-16T22:27:42.128Z,14.47
2019-02-16T22:30:14.453Z,14.00
2019-02-16T22:32:46.805Z,14.43
2019-02-16T22:35:19.147Z,13.43
2019-02-16T22:37:51.503Z,13.20
2019-02-16T22:40:34.633Z,12.80
2019-02-16T22:43:07.069Z,13.00
2019-02-16T22:45:39.425Z,13.93
2019-02-16T22:48:11.783Z,13.87
2019-02-16T22:50:44.199Z,12.80
2019-02-16T22:53:16.502Z,14.10
2019-02-16T22:55:48.872Z,12.67
2019-02-16T22:58:28.487Z,13.20
2019-02-16T23:00:55.486Z,12.43
2019-02-16T23:03:27.842Z,12.40
2019-02-16T23:06:00.189Z,13.60
2019-02-16T23:08:32.488Z,11.93
2019-02-16T23:11:08.726Z,11.43
2019-02-16T23:13:54.183Z,12.03
2019-02-16T23:16:26.501Z,13.20
2019-02-16T23:18:58.766Z,12.60
2019-02-16T23:21:31.128Z,13.77
2019-02-16T23:24:03.610Z,12.30
2019-02-16T23:26:35.898Z,11.93
2019-02-16T23:29:19.284Z,12.17
2019-02-16T23:31:51.652Z,12.13
2019-02-16T23:34:23.958Z,12.47
2019-02-16T23:36:56.312Z,13.17
2019-02-16T23:39:28.682Z,13.03
2019-02-16T23:42:01.088Z,12.80
2019-02-16T23:44:33.414Z,13.20
2019-02-16T23:47:05.742Z,13.40
2019-02-16T23:49:38.078Z,14.07
2019-02-16T23:52:10.385Z,14.00
2019-02-16T23:54:54.304Z,14.63
2019-02-16T23:57:26.687Z,13.90
2019-02-16T23:59:59.043Z,13.97
